.
WxDataArchive / Data Records for 2012-03-15
2012-03-14 March 2012 2012-03-16

Data Records for Thursday, 15 March 2012

Time	Temp	Chill	HIndex	Humid	Dewpt	 Wind 	HiWind	WindDir	Rain 	Barom 
-----	----	-----	------	-----	-----	------	------	-------	-----	----- 
00:00	65.5	65.5	65.5	63	52.6	0	1	135	0.00	30.030 
00:05	65.3	65.3	65.3	64	52.8	0	1	135	0.00	30.030 
00:10	65.2	65.2	65.2	64	52.7	0	1	135	0.00	30.030 
00:15	65.0	65.0	65.0	64	52.5	0	1	135	0.00	30.025 
00:20	64.8	64.8	64.8	65	52.8	0	0	---	0.00	30.025 
00:25	64.7	64.7	64.7	65	52.7	0	0	---	0.00	30.025 
00:30	64.5	64.5	64.5	66	52.9	0	2	135	0.00	30.022 
00:35	64.5	64.5	64.5	66	52.9	0	1	135	0.00	30.022 
00:40	64.5	64.5	64.5	66	52.9	0	1	135	0.00	30.022 
00:45	64.7	64.7	64.7	66	53.1	0	1	135	0.00	30.020 
00:50	64.7	64.7	64.7	66	53.1	0	1	135	0.00	30.020 
00:55	64.5	64.5	64.5	66	52.9	0	1	135	0.00	30.020 
01:00	64.5	64.5	64.5	66	52.9	0	1	135	0.00	30.017 
01:05	64.5	64.5	64.5	66	52.9	0	1	158	0.00	30.017 
01:10	64.7	64.7	64.7	66	53.1	0	2	112	0.00	30.017 
01:15	64.8	64.8	64.8	65	52.8	1	5	248	0.00	30.010 
01:20	65.5	65.5	65.5	64	53.0	1	3	248	0.00	30.010 
01:25	66.1	66.1	66.1	63	53.1	2	6	248	0.00	30.010 
01:30	66.4	66.4	66.4	62	53.0	2	5	248	0.00	30.002 
01:35	66.4	66.4	66.4	62	53.0	0	3	248	0.00	30.002 
01:40	66.3	66.3	66.3	62	52.9	0	2	248	0.00	30.002 
01:45	66.0	66.0	66.0	63	53.0	1	3	248	0.00	30.002 
01:50	65.8	65.8	65.8	63	52.8	0	2	248	0.00	30.002 
01:55	65.6	65.6	65.6	64	53.1	1	2	248	0.00	30.002 
02:00	65.5	65.5	65.5	64	53.0	0	3	248	0.00	30.001 
02:05	65.3	65.3	65.3	65	53.2	0	2	248	0.00	30.001 
02:10	65.2	65.2	65.2	65	53.1	0	2	248	0.00	30.001 
02:15	65.0	65.0	65.0	65	52.9	0	1	248	0.00	30.001 
02:20	65.0	65.0	65.0	66	53.4	0	2	248	0.00	30.001 
02:25	64.8	64.8	64.8	66	53.2	0	3	248	0.00	30.001 
02:30	64.7	64.7	64.7	66	53.1	0	1	248	0.00	30.001 
02:35	64.7	64.7	64.7	67	53.5	0	2	248	0.00	30.001 
02:40	64.5	64.5	64.5	67	53.3	0	1	248	0.00	30.001 
02:45	64.3	64.3	64.3	68	53.5	0	2	248	0.00	30.007 
02:50	64.2	64.2	64.2	68	53.4	0	1	248	0.00	30.007 
02:55	64.2	64.2	64.2	68	53.4	0	1	248	0.00	30.007 
03:00	64.0	64.0	64.0	69	53.6	0	1	248	0.00	30.004 
03:05	63.9	63.9	63.9	69	53.5	0	0	---	0.00	30.004 
03:10	63.7	63.7	63.7	69	53.3	0	1	248	0.00	30.004 
03:15	63.4	63.4	63.4	70	53.4	0	1	248	0.00	30.008 
03:20	63.2	63.2	63.2	71	53.6	0	2	248	0.00	30.008 
03:25	63.1	63.1	63.1	71	53.5	0	1	248	0.00	30.008 
03:30	63.1	63.1	63.1	71	53.5	0	1	248	0.00	30.013 
03:35	62.9	62.9	62.9	72	53.7	0	1	248	0.00	30.013 
03:40	62.9	62.9	62.9	72	53.7	0	1	248	0.00	30.013 
03:45	62.7	62.7	62.7	72	53.5	0	0	---	0.00	30.008 
03:50	62.6	62.6	62.6	73	53.8	0	1	248	0.00	30.008 
03:55	62.4	62.4	62.4	73	53.6	0	0	---	0.00	30.008 
04:00	62.3	62.3	62.3	73	53.5	0	1	248	0.00	30.005 
04:05	62.1	62.1	62.1	74	53.7	0	0	---	0.00	30.005 
04:10	62.1	62.1	62.1	74	53.7	0	1	248	0.00	30.005 
04:15	62.0	62.0	62.0	74	53.6	0	2	248	0.00	30.004 
04:20	62.0	62.0	62.0	75	54.0	0	1	248	0.00	30.004 
04:25	61.8	61.8	61.8	75	53.8	0	1	248	0.00	30.004 
04:30	61.8	61.8	61.8	75	53.8	0	1	248	0.00	30.002 
04:35	61.8	61.8	61.8	76	54.1	0	1	248	0.00	30.002 
04:40	61.8	61.8	61.8	76	54.1	0	1	248	0.00	30.002 
04:45	62.0	62.0	62.0	76	54.3	0	1	248	0.00	29.993 
04:50	62.0	62.0	62.0	76	54.3	0	1	248	0.00	29.993 
04:55	62.1	62.1	62.1	76	54.4	0	2	248	0.00	29.993 
05:00	62.0	62.0	62.0	76	54.3	0	1	248	0.00	29.991 
05:05	62.0	62.0	62.0	76	54.3	0	1	248	0.00	29.991 
05:10	62.0	62.0	62.0	76	54.3	0	2	248	0.00	29.991 
05:15	62.0	62.0	62.0	76	54.3	0	2	248	0.00	29.990 
05:20	62.0	62.0	62.0	76	54.3	0	1	248	0.00	29.990 
05:25	61.8	61.8	61.8	76	54.1	0	4	248	0.00	29.990 
05:30	61.8	61.8	61.8	77	54.5	0	1	248	0.00	29.989 
05:35	61.8	61.8	61.8	77	54.5	0	1	248	0.00	29.989 
05:40	61.8	61.8	61.8	77	54.5	0	3	248	0.00	29.989 
05:45	61.6	61.6	61.6	77	54.3	0	2	248	0.00	29.989 
05:50	61.6	61.6	61.6	78	54.7	0	2	248	0.00	29.989 
05:55	61.8	61.8	61.8	78	54.9	0	2	248	0.00	29.989 
06:00	61.8	61.8	61.8	78	54.9	0	2	248	0.00	29.998 
06:05	62.0	62.0	62.0	78	55.1	0	3	248	0.00	29.998 
06:10	62.0	62.0	62.0	78	55.1	0	2	248	0.00	29.998 
06:15	62.1	62.1	62.1	78	55.2	0	3	248	0.00	30.006 
06:20	62.3	62.3	62.3	79	55.7	0	2	248	0.00	30.006 
06:25	62.4	62.4	62.4	78	55.4	1	4	248	0.00	30.006 
06:30	62.6	62.6	62.6	80	56.3	1	5	248	0.00	29.999 
06:35	62.3	62.3	62.3	82	56.7	1	4	270	0.00	29.999 
06:40	61.8	61.8	61.8	84	56.9	1	4	270	0.00	29.999 
06:45	61.6	61.6	61.6	85	57.0	1	3	248	0.00	30.008 
06:50	61.5	61.5	61.5	86	57.3	0	3	248	0.00	30.008 
06:55	61.3	61.3	61.3	87	57.4	1	3	248	0.00	30.008 
07:00	61.3	61.3	61.3	87	57.4	0	3	248	0.00	30.003 
07:05	61.2	61.2	61.2	87	57.3	0	2	248	0.00	30.003 
07:10	61.2	61.2	61.2	87	57.3	1	3	248	0.00	30.003 
07:15	61.2	61.2	61.2	87	57.3	0	1	248	0.00	30.023 
07:20	61.2	61.2	61.2	87	57.3	0	1	248	0.00	30.023 
07:25	61.2	61.2	61.2	87	57.3	0	2	248	0.00	30.023 
07:30	61.0	61.0	61.0	88	57.4	0	1	248	0.00	30.021 
07:35	60.9	60.9	60.9	88	57.3	0	1	248	0.00	30.021 
07:40	60.9	60.9	60.9	88	57.3	0	1	248	0.00	30.021 
07:45	60.9	60.9	60.9	88	57.3	0	3	248	0.00	30.020 
07:50	60.9	60.9	60.9	89	57.6	0	2	248	0.00	30.020 
07:55	60.9	60.9	60.9	89	57.6	0	1	248	0.00	30.020 
08:00	60.9	60.9	60.9	89	57.6	0	2	248	0.00	30.018 
08:05	61.0	61.0	61.0	89	57.7	0	1	248	0.00	30.018 
08:10	61.0	61.0	61.0	89	57.7	0	2	248	0.00	30.018 
08:15	61.0	61.0	61.0	90	58.0	0	1	248	0.00	30.026 
08:20	60.9	60.9	60.9	90	57.9	0	1	248	0.00	30.026 
08:25	61.0	61.0	61.0	90	58.0	0	1	248	0.00	30.026 
08:30	61.0	61.0	61.0	90	58.0	0	1	248	0.00	30.031 
08:35	60.9	60.9	60.9	90	57.9	0	1	248	0.00	30.031 
08:40	60.9	60.9	60.9	90	57.9	0	0	---	0.00	30.031 
08:45	60.7	60.7	60.7	90	57.7	0	0	---	0.00	30.037 
08:50	60.5	60.5	60.5	90	57.5	0	1	248	0.00	30.037 
08:55	60.5	60.5	60.5	91	57.9	0	1	248	0.00	30.037 
09:00	60.5	60.5	60.5	91	57.9	0	1	248	0.00	30.042 
09:05	60.5	60.5	60.5	91	57.9	0	1	248	0.00	30.042 
09:10	60.5	60.5	60.5	91	57.9	0	0	---	0.00	30.042 
09:15	60.5	60.5	60.5	91	57.9	0	1	248	0.00	30.044 
09:20	60.5	60.5	60.5	91	57.9	0	0	---	0.00	30.044 
09:25	60.5	60.5	60.5	92	58.2	0	1	248	0.00	30.044 
09:30	61.0	61.0	61.0	92	58.7	0	1	248	0.00	30.044 
09:35	61.6	61.6	61.6	92	59.2	0	1	0	0.00	30.044 
09:40	62.1	62.1	62.1	92	59.7	1	3	225	0.00	30.044 
09:45	62.6	62.6	62.6	91	59.9	1	3	225	0.00	30.043 
09:50	63.1	63.1	63.1	91	60.4	1	4	225	0.00	30.043 
09:55	63.5	63.5	63.5	90	60.5	1	3	225	0.00	30.043 
10:00	63.9	63.9	63.9	89	60.6	1	4	225	0.00	30.042 
10:05	64.3	64.3	64.3	88	60.7	1	4	248	0.00	30.042 
10:10	64.8	64.8	64.8	87	60.8	1	5	248	0.00	30.042 
10:15	65.3	65.3	65.3	86	61.0	1	3	270	0.00	30.040 
10:20	66.0	66.0	66.0	84	61.0	1	3	270	0.00	30.040 
10:25	66.4	66.4	66.4	83	61.1	1	6	248	0.00	30.040 
10:30	66.9	66.9	66.9	81	60.9	1	5	248	0.00	30.037 
10:35	67.3	67.3	67.3	80	60.9	2	7	248	0.00	30.037 
10:40	67.6	67.6	67.6	80	61.2	2	5	248	0.01	30.037 
10:45	68.1	68.1	68.1	78	61.0	2	6	248	0.00	30.033 
10:50	68.6	68.6	68.6	77	61.1	1	5	248	0.00	30.033 
10:55	69.1	69.1	69.1	76	61.2	2	4	248	0.00	30.033 
11:00	69.4	69.4	69.4	76	61.5	2	5	248	0.00	30.029 
11:05	69.9	69.9	69.9	74	61.2	2	5	248	0.00	30.029 
11:10	70.3	70.3	70.3	74	61.6	2	5	248	0.00	30.029 
11:15	70.6	70.6	70.6	73	61.5	2	6	248	0.00	30.021 
11:20	70.9	70.9	70.9	72	61.4	2	5	248	0.00	30.021 
11:25	71.3	71.3	71.3	72	61.8	2	4	248	0.00	30.021 
11:30	71.5	71.5	71.5	71	61.6	2	5	270	0.00	30.017 
11:35	71.6	71.6	71.6	70	61.3	3	7	248	0.00	30.017 
11:40	72.0	72.0	72.0	70	61.7	2	4	248	0.00	30.017 
11:45	72.3	72.3	72.3	70	62.0	2	7	248	0.00	30.012 
11:50	72.8	72.8	72.8	69	62.0	2	5	248	0.00	30.012 
11:55	73.2	73.2	73.2	68	62.0	3	7	248	0.00	30.012 
12:00	73.5	73.5	73.5	68	62.3	3	7	248	0.00	30.008 
12:05	73.7	73.7	73.7	68	62.5	2	5	270	0.00	30.008 
12:10	73.9	73.9	73.9	66	61.8	3	6	248	0.00	30.008 
12:15	74.2	74.2	74.2	66	62.1	2	5	270	0.00	30.005 
12:20	74.6	74.6	74.6	65	62.0	2	6	248	0.00	30.005 
12:25	74.7	74.7	74.7	65	62.1	3	4	248	0.00	30.005 
12:30	74.9	74.9	74.9	64	61.9	2	4	270	0.00	30.002 
12:35	75.1	75.1	77.2	64	62.1	2	5	270	0.00	30.002 
12:40	75.3	75.3	77.4	63	61.8	3	7	270	0.00	30.002 
12:45	75.4	75.4	77.4	64	62.4	2	4	225	0.00	30.002 
12:50	75.6	75.6	77.6	63	62.1	2	5	248	0.00	30.002 
12:55	76.0	76.0	77.9	63	62.5	2	5	270	0.00	30.002 
13:00	76.3	76.3	78.2	62	62.3	2	7	248	0.00	30.002 
13:05	76.7	76.7	78.5	62	62.7	2	4	270	0.00	30.002 
13:10	76.8	76.8	78.6	60	61.8	2	5	248	0.00	30.002 
13:15	77.2	77.2	78.9	60	62.2	2	8	248	0.00	30.000 
13:20	77.4	77.4	79.1	59	61.9	1	4	248	0.00	30.000 
13:25	77.6	77.6	79.2	58	61.6	2	6	248	0.00	30.000 
13:30	77.6	77.6	79.3	59	62.1	2	5	248	0.00	29.997 
13:35	77.7	77.7	79.3	58	61.7	2	5	292	0.00	29.997 
13:40	77.7	77.7	79.3	58	61.7	3	6	248	0.00	29.997 
13:45	77.7	77.7	79.4	59	62.2	2	5	248	0.00	29.994 
13:50	77.9	77.9	79.5	58	61.9	2	7	248	0.00	29.994 
13:55	78.1	78.1	79.7	59	62.6	1	5	270	0.00	29.994 
14:00	78.3	78.3	79.9	58	62.3	2	9	270	0.00	29.991 
14:05	78.5	78.5	80.0	57	62.0	2	6	248	0.00	29.991 
14:10	78.6	78.6	80.1	58	62.6	1	5	248	0.00	29.991 
14:15	78.6	78.6	80.0	56	61.6	2	5	248	0.00	29.993 
14:20	78.1	78.1	79.6	57	61.6	2	5	270	0.00	29.993 
14:25	78.1	78.1	79.7	58	62.1	2	5	248	0.00	29.993 
14:30	77.9	77.9	79.5	58	61.9	3	7	248	0.00	29.989 
14:35	77.6	77.6	79.3	59	62.1	2	6	248	0.00	29.989 
14:40	77.9	77.9	79.5	59	62.4	2	7	248	0.00	29.989 
14:45	78.3	78.3	79.8	57	61.8	2	9	248	0.00	29.986 
14:50	78.3	78.3	79.9	58	62.3	2	6	248	0.00	29.986 
14:55	78.6	78.6	80.1	57	62.1	3	10	248	0.00	29.986 
15:00	78.8	78.8	80.1	55	61.2	3	9	248	0.00	29.984 
15:05	79.0	79.0	80.4	56	61.9	3	6	248	0.00	29.984 
15:10	79.4	79.4	80.8	56	62.3	2	7	248	0.00	29.984 
15:15	78.6	78.6	80.0	55	61.1	3	11	248	0.00	29.982 
15:20	78.6	78.6	80.0	55	61.1	3	8	248	0.00	29.982 
15:25	78.5	78.5	79.9	55	61.0	3	7	248	0.00	29.982 
15:30	78.5	78.5	79.9	56	61.5	3	7	248	0.00	29.977 
15:35	78.8	78.8	80.1	55	61.2	3	12	248	0.00	29.977 
15:40	79.2	79.2	80.5	55	61.6	3	7	270	0.00	29.977 
15:45	79.0	79.0	80.3	54	60.9	3	7	248	0.00	29.978 
15:50	78.8	78.8	80.2	56	61.8	2	4	248	0.00	29.978 
15:55	78.8	78.8	80.1	54	60.7	3	11	270	0.00	29.978 
16:00	79.0	79.0	80.3	54	60.9	4	10	248	0.00	29.978 
16:05	79.4	79.4	80.5	52	60.2	3	10	270	0.00	29.978 
16:10	79.6	79.6	80.5	51	59.9	4	10	248	0.00	29.978 
16:15	79.6	79.6	80.7	53	60.9	3	9	248	0.00	29.982 
16:20	79.6	79.6	80.6	52	60.4	3	12	248	0.00	29.982 
16:25	79.6	79.6	80.6	52	60.4	2	6	248	0.00	29.982 
16:30	79.6	79.6	80.5	50	59.3	4	7	248	0.00	29.982 
16:35	79.2	79.2	80.2	51	59.5	3	7	248	0.00	29.982 
16:40	79.2	79.2	80.3	52	60.0	2	7	248	0.00	29.982 
16:45	79.4	79.4	80.3	50	59.1	3	7	248	0.00	29.979 
16:50	79.2	79.2	80.3	52	60.0	3	7	248	0.00	29.979 
16:55	79.2	79.2	80.3	52	60.0	2	5	248	0.00	29.979 
17:00	78.8	78.8	79.9	52	59.7	3	6	248	0.00	29.975 
17:05	78.3	78.3	79.6	53	59.7	2	6	248	0.00	29.975 
17:10	78.1	78.1	79.4	52	59.0	3	7	270	0.00	29.975 
17:15	78.3	78.3	79.4	50	58.1	3	8	248	0.00	29.969 
17:20	78.3	78.3	79.6	52	59.2	3	7	248	0.00	29.969 
17:25	78.5	78.5	79.6	51	58.8	3	8	248	0.00	29.969 
17:30	78.6	78.6	79.7	51	58.9	3	7	248	0.00	29.961 
17:35	78.8	78.8	79.8	50	58.6	3	6	248	0.00	29.961 
17:40	78.8	78.8	79.7	49	58.0	3	12	248	0.00	29.961 
17:45	78.5	78.5	79.6	50	58.3	4	7	248	0.00	29.958 
17:50	78.1	78.1	79.4	51	58.5	2	7	248	0.00	29.958 
17:55	78.3	78.3	79.5	51	58.7	2	7	248	0.00	29.958 
18:00	78.3	78.3	79.4	50	58.1	3	9	248	0.00	29.950 
18:05	78.5	78.5	79.6	50	58.3	4	9	248	0.00	29.950 
18:10	78.5	78.5	79.6	50	58.3	3	10	248	0.00	29.950 
18:15	78.5	78.5	79.6	50	58.3	2	5	248	0.00	29.956 
18:20	78.3	78.3	79.5	51	58.7	2	5	248	0.00	29.956 
18:25	77.9	77.9	79.2	50	57.7	3	6	248	0.00	29.956 
18:30	77.7	77.7	79.1	51	58.1	3	7	225	0.00	29.959 
18:35	77.4	77.4	78.9	51	57.8	3	7	248	0.00	29.959 
18:40	77.2	77.2	78.7	51	57.6	2	5	248	0.00	29.959 
18:45	77.0	77.0	78.7	52	58.0	1	3	225	0.00	29.957 
18:50	76.8	76.8	78.5	52	57.8	1	9	225	0.00	29.957 
18:55	76.7	76.7	78.5	52	57.7	1	3	248	0.00	29.957 
19:00	76.5	76.5	78.4	52	57.5	2	4	248	0.00	29.962 
19:05	76.5	76.5	78.4	52	57.5	1	3	248	0.00	29.962 
19:10	76.3	76.3	78.2	52	57.4	1	4	248	0.00	29.962 
19:15	76.0	76.0	78.1	53	57.6	0	1	248	0.00	29.959 
19:20	76.0	76.0	78.1	52	57.1	1	2	248	0.00	29.959 
19:25	75.8	75.8	78.0	53	57.4	0	3	248	0.00	29.959 
19:30	75.6	75.6	77.8	56	58.8	0	2	248	0.00	29.967 
19:35	73.3	73.3	73.3	66	61.2	3	9	270	0.07	29.967 
19:40	71.3	71.3	71.3	72	61.8	0	3	225	0.02	29.967 
19:45	69.9	69.9	69.9	76	62.0	0	3	112	0.00	29.965 
19:50	68.9	68.9	68.9	79	62.1	0	1	112	0.00	29.965 
19:55	68.1	68.1	68.1	81	62.0	0	0	---	0.00	29.965 
20:00	67.6	67.6	67.6	84	62.6	0	0	---	0.00	29.977 
20:05	67.1	67.1	67.1	85	62.4	0	0	---	0.00	29.977 
20:10	66.8	66.8	66.8	86	62.5	0	0	---	0.00	29.977 
20:15	66.4	66.4	66.4	87	62.4	0	0	---	0.00	29.984 
20:20	66.1	66.1	66.1	87	62.1	0	0	---	0.00	29.984 
20:25	66.0	66.0	66.0	88	62.3	0	1	112	0.00	29.984 
20:30	66.0	66.0	66.0	87	62.0	0	1	112	0.00	29.986 
20:35	66.1	66.1	66.1	85	61.5	0	2	112	0.00	29.986 
20:40	66.4	66.4	66.4	83	61.1	0	2	112	0.00	29.986 
20:45	66.8	66.8	66.8	81	60.8	0	2	112	0.00	29.980 
20:50	67.3	67.3	67.3	79	60.6	0	1	112	0.00	29.980 
20:55	67.4	67.4	67.4	78	60.3	0	2	112	0.00	29.980 
21:00	67.8	67.8	67.8	75	59.6	0	2	112	0.00	29.981 
21:05	68.1	68.1	68.1	75	59.9	0	2	112	0.00	29.981 
21:10	68.4	68.4	68.4	74	59.8	1	3	248	0.00	29.981 
21:15	68.9	68.9	68.9	73	59.9	1	4	225	0.00	30.001 
21:20	69.3	69.3	69.3	72	59.9	2	4	248	0.00	30.001 
21:25	69.6	69.6	69.6	71	59.8	1	3	248	0.00	30.001 
21:30	69.9	69.9	69.9	70	59.7	1	4	248	0.00	30.008 
21:35	69.9	69.9	69.9	70	59.7	1	4	248	0.00	30.008 
21:40	70.1	70.1	70.1	70	59.8	0	3	248	0.00	30.008 
21:45	70.1	70.1	70.1	69	59.4	1	4	248	0.00	30.012 
21:50	70.1	70.1	70.1	69	59.4	2	4	248	0.00	30.012 
21:55	70.1	70.1	70.1	69	59.4	1	4	248	0.00	30.012 
22:00	70.1	70.1	70.1	69	59.4	0	3	248	0.00	30.019 
22:05	69.9	69.9	69.9	69	59.3	1	3	248	0.00	30.019 
22:10	69.8	69.8	69.8	69	59.2	1	3	248	0.00	30.019 
22:15	69.6	69.6	69.6	69	59.0	1	4	248	0.00	30.017 
22:20	69.4	69.4	69.4	69	58.8	1	3	248	0.00	30.017 
22:25	69.3	69.3	69.3	69	58.7	1	4	248	0.00	30.017 
22:30	69.1	69.1	69.1	69	58.5	0	2	248	0.00	30.019 
22:35	68.8	68.8	68.8	70	58.6	0	2	248	0.00	30.019 
22:40	68.6	68.6	68.6	70	58.4	0	3	248	0.00	30.019 
22:45	68.3	68.3	68.3	71	58.5	1	3	248	0.00	30.017 
22:50	68.1	68.1	68.1	71	58.3	0	2	248	0.00	30.017 
22:55	67.8	67.8	67.8	71	58.0	1	3	248	0.00	30.017 
23:00	67.6	67.6	67.6	71	57.9	1	2	248	0.00	30.021 
23:05	67.6	67.6	67.6	70	57.5	1	4	248	0.00	30.021 
23:10	67.6	67.6	67.6	67	56.2	2	7	248	0.00	30.021 
23:15	67.8	67.8	67.8	65	55.6	2	5	248	0.00	30.018 
23:20	67.8	67.8	67.8	64	55.2	1	6	248	0.00	30.018 
23:25	67.6	67.6	67.6	64	55.0	1	5	248	0.00	30.018 
23:30	67.6	67.6	67.6	63	54.5	1	5	248	0.00	30.014 
23:35	67.4	67.4	67.4	63	54.4	1	4	248	0.00	30.014 
23:40	67.3	67.3	67.3	63	54.3	2	5	248	0.00	30.014 
23:45	67.1	67.1	67.1	63	54.1	2	5	248	0.00	30.015 
23:50	66.9	66.9	66.9	64	54.3	0	2	248	0.00	30.015 
23:55	66.8	66.8	66.8	64	54.2	1	4	248	0.00	30.015 

CoCoRaHS
IN-AL-39
A2 Web Hosting
Creative Commons License
GoDaddy
search engine by freefind advanced

loaded 2018-11-18 11:04:08 • last modified 2010-11-18 10:43:29
Privacy PolicyDisclaimer
• wx.awcolley.com is powered by PmWiki v.2002016 •
• all content (unless otherwise noted) © 2018 A W Colley